2TN1 weather

Baptist Memorial Hospital Heliport
Ripley, Tennessee, United States

Public forecast

Using degrees Fahrenheit for public forecast. Weather courtesy of forecast.io.

Closest aviation weather report (METAR) to Baptist Memorial Hospital Heliport

Closest report is Dyersburg Regional Airport, 16.6 nm (30.8 km) NNE. Retrieved 2020/05/28 22:56 UTC (53 minutes ago):

KDYR 282256Z AUTO VRB05KT 10SM CLR 24/20 A2991 RMK AO2 RAE2159 SLP130 T02390200 PNO

Closest aviation forecast (TAF) to Baptist Memorial Hospital Heliport

Closest forecast is McKellar-Sipes Regional Airport, 31.6 nm (58.6 km) ESE. Retrieved 2020/05/28 18:39 UTC (5 hours ago):

TAF KMKL 281735Z 2818/2918 21008KT P6SM VCSH SCT040 BKN120 FM282000 22009KT P6SM VCTS SCT045CB BKN100 TEMPO 2821/2823 VRB10G20KT 3SM TSRA BKN040CB FM290100 19005KT P6SM VCSH BKN080 FM290900 20004KT P6SM BKN015 FM291400 29007KT P6SM BKN025